sensor_id;sensor_type;location;lat;lon;timestamp;P1;durP1;ratioP1;P2;durP2;ratioP2
4819;SDS011;2424;49.696;6.630;2023-07-20T00:03:28;0.90;;;0.90;;
4819;SDS011;2424;49.696;6.630;2023-07-20T00:08:49;1.30;;;1.20;;
4819;SDS011;2424;49.696;6.630;2023-07-20T00:14:11;0.90;;;0.90;;
4819;SDS011;2424;49.696;6.630;2023-07-20T00:19:35;1.57;;;0.80;;
4819;SDS011;2424;49.696;6.630;2023-07-20T00:24:57;0.90;;;0.90;;
4819;SDS011;2424;49.696;6.630;2023-07-20T00:30:19;0.80;;;0.80;;
4819;SDS011;2424;49.696;6.630;2023-07-20T00:35:42;0.90;;;0.90;;
4819;SDS011;2424;49.696;6.630;2023-07-20T00:41:04;1.00;;;1.00;;
4819;SDS011;2424;49.696;6.630;2023-07-20T00:46:26;1.80;;;0.97;;
4819;SDS011;2424;49.696;6.630;2023-07-20T00:51:50;0.67;;;0.67;;
4819;SDS011;2424;49.696;6.630;2023-07-20T00:57:12;1.90;;;0.93;;
4819;SDS011;2424;49.696;6.630;2023-07-20T01:02:36;1.00;;;1.00;;
4819;SDS011;2424;49.696;6.630;2023-07-20T01:07:59;1.53;;;0.77;;
4819;SDS011;2424;49.696;6.630;2023-07-20T01:13:29;1.10;;;0.93;;
4819;SDS011;2424;49.696;6.630;2023-07-20T01:18:51;0.93;;;0.93;;
4819;SDS011;2424;49.696;6.630;2023-07-20T01:24:20;1.00;;;1.00;;
4819;SDS011;2424;49.696;6.630;2023-07-20T01:30:12;2.33;;;1.07;;
4819;SDS011;2424;49.696;6.630;2023-07-20T01:35:44;0.80;;;0.80;;
4819;SDS011;2424;49.696;6.630;2023-07-20T01:41:10;1.03;;;1.03;;
4819;SDS011;2424;49.696;6.630;2023-07-20T01:46:32;1.23;;;1.00;;
4819;SDS011;2424;49.696;6.630;2023-07-20T01:51:55;1.20;;;1.20;;
4819;SDS011;2424;49.696;6.630;2023-07-20T01:57:17;0.77;;;0.77;;
4819;SDS011;2424;49.696;6.630;2023-07-20T02:02:39;1.00;;;1.00;;
4819;SDS011;2424;49.696;6.630;2023-07-20T02:08:04;0.90;;;0.90;;
4819;SDS011;2424;49.696;6.630;2023-07-20T02:13:26;0.63;;;0.63;;
4819;SDS011;2424;49.696;6.630;2023-07-20T02:18:48;0.80;;;0.80;;
4819;SDS011;2424;49.696;6.630;2023-07-20T02:24:11;0.70;;;0.70;;
4819;SDS011;2424;49.696;6.630;2023-07-20T02:29:33;0.80;;;0.80;;
4819;SDS011;2424;49.696;6.630;2023-07-20T02:34:56;0.80;;;0.80;;
4819;SDS011;2424;49.696;6.630;2023-07-20T02:40:19;1.03;;;1.00;;
4819;SDS011;2424;49.696;6.630;2023-07-20T02:45:41;1.00;;;1.00;;
4819;SDS011;2424;49.696;6.630;2023-07-20T02:51:03;1.13;;;1.03;;
4819;SDS011;2424;49.696;6.630;2023-07-20T02:56:27;1.10;;;1.10;;
4819;SDS011;2424;49.696;6.630;2023-07-20T03:01:48;3.37;;;0.70;;
4819;SDS011;2424;49.696;6.630;2023-07-20T03:07:10;0.53;;;0.53;;
4819;SDS011;2424;49.696;6.630;2023-07-20T03:12:34;0.90;;;0.90;;
4819;SDS011;2424;49.696;6.630;2023-07-20T03:17:56;1.20;;;1.20;;
4819;SDS011;2424;49.696;6.630;2023-07-20T03:23:18;1.20;;;1.03;;
4819;SDS011;2424;49.696;6.630;2023-07-20T03:28:41;1.40;;;1.10;;
4819;SDS011;2424;49.696;6.630;2023-07-20T03:34:04;1.07;;;1.07;;
4819;SDS011;2424;49.696;6.630;2023-07-20T03:39:26;0.77;;;0.77;;
4819;SDS011;2424;49.696;6.630;2023-07-20T03:44:49;1.30;;;1.20;;
4819;SDS011;2424;49.696;6.630;2023-07-20T03:50:11;0.90;;;0.90;;
4819;SDS011;2424;49.696;6.630;2023-07-20T03:55:33;0.77;;;0.77;;
4819;SDS011;2424;49.696;6.630;2023-07-20T04:00:57;1.00;;;1.00;;
4819;SDS011;2424;49.696;6.630;2023-07-20T04:06:19;1.00;;;1.00;;
4819;SDS011;2424;49.696;6.630;2023-07-20T04:11:41;0.90;;;0.80;;
4819;SDS011;2424;49.696;6.630;2023-07-20T04:17:04;1.00;;;0.90;;
4819;SDS011;2424;49.696;6.630;2023-07-20T04:22:26;1.53;;;0.90;;
4819;SDS011;2424;49.696;6.630;2023-07-20T04:27:48;0.93;;;0.83;;
4819;SDS011;2424;49.696;6.630;2023-07-20T04:33:13;0.70;;;0.70;;
4819;SDS011;2424;49.696;6.630;2023-07-20T04:38:35;0.87;;;0.87;;
4819;SDS011;2424;49.696;6.630;2023-07-20T04:43:57;2.00;;;1.20;;
4819;SDS011;2424;49.696;6.630;2023-07-20T04:49:20;1.50;;;1.00;;
4819;SDS011;2424;49.696;6.630;2023-07-20T04:54:42;0.80;;;0.80;;
4819;SDS011;2424;49.696;6.630;2023-07-20T05:00:04;2.63;;;1.03;;
4819;SDS011;2424;49.696;6.630;2023-07-20T05:05:28;0.97;;;0.97;;
4819;SDS011;2424;49.696;6.630;2023-07-20T05:10:50;1.27;;;0.83;;
4819;SDS011;2424;49.696;6.630;2023-07-20T05:16:12;0.80;;;0.80;;
4819;SDS011;2424;49.696;6.630;2023-07-20T05:21:36;1.07;;;1.07;;
4819;SDS011;2424;49.696;6.630;2023-07-20T05:26:58;2.33;;;1.07;;
4819;SDS011;2424;49.696;6.630;2023-07-20T05:32:20;1.10;;;1.00;;
4819;SDS011;2424;49.696;6.630;2023-07-20T05:37:43;1.03;;;0.93;;
4819;SDS011;2424;49.696;6.630;2023-07-20T05:43:05;8.43;;;1.00;;
4819;SDS011;2424;49.696;6.630;2023-07-20T05:48:27;1.30;;;1.20;;
4819;SDS011;2424;49.696;6.630;2023-07-20T05:53:50;2.40;;;0.90;;
4819;SDS011;2424;49.696;6.630;2023-07-20T05:59:12;1.37;;;1.27;;
4819;SDS011;2424;49.696;6.630;2023-07-20T06:04:34;1.20;;;0.90;;
4819;SDS011;2424;49.696;6.630;2023-07-20T06:09:57;1.33;;;1.23;;
4819;SDS011;2424;49.696;6.630;2023-07-20T06:15:26;2.23;;;1.00;;
4819;SDS011;2424;49.696;6.630;2023-07-20T06:20:49;1.23;;;1.10;;
4819;SDS011;2424;49.696;6.630;2023-07-20T06:26:13;3.03;;;1.20;;
4819;SDS011;2424;49.696;6.630;2023-07-20T06:31:36;0.97;;;0.80;;
4819;SDS011;2424;49.696;6.630;2023-07-20T06:36:58;1.20;;;1.20;;
4819;SDS011;2424;49.696;6.630;2023-07-20T06:42:21;1.13;;;1.13;;
4819;SDS011;2424;49.696;6.630;2023-07-20T06:47:43;1.63;;;1.20;;
4819;SDS011;2424;49.696;6.630;2023-07-20T06:53:05;3.63;;;1.37;;
4819;SDS011;2424;49.696;6.630;2023-07-20T06:58:28;1.20;;;1.10;;
4819;SDS011;2424;49.696;6.630;2023-07-20T07:03:50;1.50;;;1.13;;
4819;SDS011;2424;49.696;6.630;2023-07-20T07:09:12;1.57;;;1.47;;
4819;SDS011;2424;49.696;6.630;2023-07-20T07:14:35;2.50;;;1.00;;
4819;SDS011;2424;49.696;6.630;2023-07-20T07:19:57;1.13;;;0.90;;
4819;SDS011;2424;49.696;6.630;2023-07-20T07:25:19;1.27;;;1.17;;
4819;SDS011;2424;49.696;6.630;2023-07-20T07:30:42;1.23;;;1.20;;
4819;SDS011;2424;49.696;6.630;2023-07-20T07:36:04;2.90;;;1.53;;
4819;SDS011;2424;49.696;6.630;2023-07-20T07:41:26;1.20;;;1.20;;
4819;SDS011;2424;49.696;6.630;2023-07-20T07:46:50;5.17;;;1.37;;
4819;SDS011;2424;49.696;6.630;2023-07-20T07:52:12;1.30;;;1.20;;
4819;SDS011;2424;49.696;6.630;2023-07-20T07:57:34;2.00;;;1.10;;
4819;SDS011;2424;49.696;6.630;2023-07-20T08:02:57;1.10;;;1.10;;
4819;SDS011;2424;49.696;6.630;2023-07-20T08:08:19;1.70;;;1.60;;
4819;SDS011;2424;49.696;6.630;2023-07-20T08:13:41;2.30;;;1.40;;
4819;SDS011;2424;49.696;6.630;2023-07-20T08:19:04;2.63;;;1.20;;
4819;SDS011;2424;49.696;6.630;2023-07-20T08:24:26;0.90;;;0.90;;
4819;SDS011;2424;49.696;6.630;2023-07-20T08:29:48;1.00;;;1.00;;
4819;SDS011;2424;49.696;6.630;2023-07-20T08:35:11;1.07;;;1.07;;
4819;SDS011;2424;49.696;6.630;2023-07-20T08:40:39;3.90;;;1.60;;
4819;SDS011;2424;49.696;6.630;2023-07-20T08:46:01;1.93;;;1.77;;
4819;SDS011;2424;49.696;6.630;2023-07-20T08:51:25;1.20;;;1.10;;
4819;SDS011;2424;49.696;6.630;2023-07-20T08:56:49;1.77;;;1.00;;
4819;SDS011;2424;49.696;6.630;2023-07-20T09:02:12;2.87;;;1.33;;
4819;SDS011;2424;49.696;6.630;2023-07-20T09:07:40;1.93;;;1.10;;
4819;SDS011;2424;49.696;6.630;2023-07-20T09:13:02;1.30;;;1.30;;
4819;SDS011;2424;49.696;6.630;2023-07-20T09:18:24;1.20;;;1.20;;
4819;SDS011;2424;49.696;6.630;2023-07-20T09:23:48;2.50;;;1.30;;
4819;SDS011;2424;49.696;6.630;2023-07-20T09:29:13;1.27;;;1.10;;
4819;SDS011;2424;49.696;6.630;2023-07-20T09:34:35;3.13;;;1.20;;
4819;SDS011;2424;49.696;6.630;2023-07-20T09:39:59;0.90;;;0.90;;
4819;SDS011;2424;49.696;6.630;2023-07-20T09:45:21;1.77;;;0.70;;
4819;SDS011;2424;49.696;6.630;2023-07-20T09:50:43;1.00;;;0.90;;
4819;SDS011;2424;49.696;6.630;2023-07-20T09:56:11;0.70;;;0.70;;
4819;SDS011;2424;49.696;6.630;2023-07-20T10:01:34;1.10;;;1.10;;
4819;SDS011;2424;49.696;6.630;2023-07-20T10:06:58;1.03;;;1.03;;
4819;SDS011;2424;49.696;6.630;2023-07-20T10:12:25;1.70;;;0.97;;
4819;SDS011;2424;49.696;6.630;2023-07-20T10:17:55;1.47;;;1.27;;
4819;SDS011;2424;49.696;6.630;2023-07-20T10:23:21;1.20;;;1.20;;
4819;SDS011;2424;49.696;6.630;2023-07-20T10:28:44;1.10;;;1.10;;
4819;SDS011;2424;49.696;6.630;2023-07-20T10:34:07;1.33;;;1.13;;
4819;SDS011;2424;49.696;6.630;2023-07-20T10:39:31;1.10;;;1.10;;
4819;SDS011;2424;49.696;6.630;2023-07-20T10:44:55;1.30;;;1.30;;
4819;SDS011;2424;49.696;6.630;2023-07-20T10:50:16;0.93;;;0.93;;
4819;SDS011;2424;49.696;6.630;2023-07-20T10:55:43;0.93;;;0.93;;
4819;SDS011;2424;49.696;6.630;2023-07-20T11:01:07;1.10;;;1.10;;
4819;SDS011;2424;49.696;6.630;2023-07-20T11:06:34;1.40;;;1.30;;
4819;SDS011;2424;49.696;6.630;2023-07-20T11:12:08;0.60;;;0.60;;
4819;SDS011;2424;49.696;6.630;2023-07-20T11:17:33;1.00;;;1.00;;
4819;SDS011;2424;49.696;6.630;2023-07-20T11:22:55;0.90;;;0.90;;
4819;SDS011;2424;49.696;6.630;2023-07-20T11:28:18;0.73;;;0.70;;
4819;SDS011;2424;49.696;6.630;2023-07-20T11:33:41;0.60;;;0.60;;
4819;SDS011;2424;49.696;6.630;2023-07-20T11:39:03;1.00;;;0.90;;
4819;SDS011;2424;49.696;6.630;2023-07-20T11:44:26;0.90;;;0.90;;
4819;SDS011;2424;49.696;6.630;2023-07-20T11:49:50;0.80;;;0.80;;
4819;SDS011;2424;49.696;6.630;2023-07-20T11:55:14;2.67;;;0.80;;
4819;SDS011;2424;49.696;6.630;2023-07-20T12:00:37;0.80;;;0.80;;
4819;SDS011;2424;49.696;6.630;2023-07-20T12:06:07;0.53;;;0.53;;
4819;SDS011;2424;49.696;6.630;2023-07-20T12:11:33;0.50;;;0.50;;
4819;SDS011;2424;49.696;6.630;2023-07-20T12:16:55;1.67;;;0.90;;
4819;SDS011;2424;49.696;6.630;2023-07-20T12:22:19;0.80;;;0.80;;
4819;SDS011;2424;49.696;6.630;2023-07-20T12:27:40;0.90;;;0.90;;
4819;SDS011;2424;49.696;6.630;2023-07-20T12:33:05;0.90;;;0.77;;
4819;SDS011;2424;49.696;6.630;2023-07-20T12:38:29;0.60;;;0.60;;
4819;SDS011;2424;49.696;6.630;2023-07-20T12:43:51;0.47;;;0.47;;
4819;SDS011;2424;49.696;6.630;2023-07-20T12:49:14;0.80;;;0.80;;
4819;SDS011;2424;49.696;6.630;2023-07-20T12:54:37;1.27;;;0.60;;
4819;SDS011;2424;49.696;6.630;2023-07-20T12:59:59;0.47;;;0.47;;
4819;SDS011;2424;49.696;6.630;2023-07-20T13:05:21;0.50;;;0.50;;
4819;SDS011;2424;49.696;6.630;2023-07-20T13:10:46;0.60;;;0.60;;
4819;SDS011;2424;49.696;6.630;2023-07-20T13:16:08;0.70;;;0.70;;
4819;SDS011;2424;49.696;6.630;2023-07-20T13:21:30;0.60;;;0.60;;
4819;SDS011;2424;49.696;6.630;2023-07-20T13:26:53;1.33;;;0.67;;
4819;SDS011;2424;49.696;6.630;2023-07-20T13:32:15;0.70;;;0.70;;
4819;SDS011;2424;49.696;6.630;2023-07-20T13:37:37;0.83;;;0.80;;
4819;SDS011;2424;49.696;6.630;2023-07-20T13:43:01;1.27;;;0.60;;
4819;SDS011;2424;49.696;6.630;2023-07-20T13:48:23;0.57;;;0.57;;
4819;SDS011;2424;49.696;6.630;2023-07-20T13:53:45;0.60;;;0.57;;
4819;SDS011;2424;49.696;6.630;2023-07-20T13:59:08;0.60;;;0.60;;
4819;SDS011;2424;49.696;6.630;2023-07-20T14:04:30;0.50;;;0.40;;
4819;SDS011;2424;49.696;6.630;2023-07-20T14:09:52;0.70;;;0.70;;
4819;SDS011;2424;49.696;6.630;2023-07-20T14:15:15;5.53;;;0.90;;
4819;SDS011;2424;49.696;6.630;2023-07-20T14:20:38;0.60;;;0.60;;
4819;SDS011;2424;49.696;6.630;2023-07-20T14:26:01;0.40;;;0.40;;
4819;SDS011;2424;49.696;6.630;2023-07-20T14:31:26;0.70;;;0.70;;
4819;SDS011;2424;49.696;6.630;2023-07-20T14:36:48;0.60;;;0.60;;
4819;SDS011;2424;49.696;6.630;2023-07-20T14:42:11;0.60;;;0.60;;
4819;SDS011;2424;49.696;6.630;2023-07-20T14:47:34;0.70;;;0.50;;
4819;SDS011;2424;49.696;6.630;2023-07-20T14:52:56;3.60;;;0.60;;
4819;SDS011;2424;49.696;6.630;2023-07-20T14:58:18;0.60;;;0.60;;
4819;SDS011;2424;49.696;6.630;2023-07-20T15:03:43;0.50;;;0.50;;
4819;SDS011;2424;49.696;6.630;2023-07-20T15:09:04;5.67;;;0.80;;
4819;SDS011;2424;49.696;6.630;2023-07-20T15:14:27;0.70;;;0.70;;
4819;SDS011;2424;49.696;6.630;2023-07-20T15:19:50;0.50;;;0.50;;
4819;SDS011;2424;49.696;6.630;2023-07-20T15:25:12;0.50;;;0.50;;
4819;SDS011;2424;49.696;6.630;2023-07-20T15:30:35;0.60;;;0.60;;
4819;SDS011;2424;49.696;6.630;2023-07-20T15:35:58;0.60;;;0.60;;
4819;SDS011;2424;49.696;6.630;2023-07-20T15:41:20;0.57;;;0.57;;
4819;SDS011;2424;49.696;6.630;2023-07-20T15:46:46;0.60;;;0.60;;
4819;SDS011;2424;49.696;6.630;2023-07-20T15:52:10;0.60;;;0.60;;
4819;SDS011;2424;49.696;6.630;2023-07-20T15:57:33;0.50;;;0.50;;
4819;SDS011;2424;49.696;6.630;2023-07-20T16:02:55;0.50;;;0.50;;
4819;SDS011;2424;49.696;6.630;2023-07-20T16:08:18;0.77;;;0.77;;
4819;SDS011;2424;49.696;6.630;2023-07-20T16:13:40;1.07;;;0.70;;
4819;SDS011;2424;49.696;6.630;2023-07-20T16:19:03;0.50;;;0.50;;
4819;SDS011;2424;49.696;6.630;2023-07-20T16:24:26;0.70;;;0.70;;
4819;SDS011;2424;49.696;6.630;2023-07-20T16:29:48;0.80;;;0.77;;
4819;SDS011;2424;49.696;6.630;2023-07-20T16:35:11;4.80;;;0.70;;
4819;SDS011;2424;49.696;6.630;2023-07-20T16:40:36;0.70;;;0.70;;
4819;SDS011;2424;49.696;6.630;2023-07-20T16:45:59;0.77;;;0.77;;
4819;SDS011;2424;49.696;6.630;2023-07-20T16:51:21;0.40;;;0.40;;
4819;SDS011;2424;49.696;6.630;2023-07-20T16:56:44;0.67;;;0.67;;
4819;SDS011;2424;49.696;6.630;2023-07-20T17:02:06;0.77;;;0.77;;
4819;SDS011;2424;49.696;6.630;2023-07-20T17:07:28;0.60;;;0.60;;
4819;SDS011;2424;49.696;6.630;2023-07-20T17:12:51;0.70;;;0.70;;
4819;SDS011;2424;49.696;6.630;2023-07-20T17:18:13;0.50;;;0.50;;
4819;SDS011;2424;49.696;6.630;2023-07-20T17:23:36;0.50;;;0.50;;
4819;SDS011;2424;49.696;6.630;2023-07-20T17:29:00;0.70;;;0.70;;
4819;SDS011;2424;49.696;6.630;2023-07-20T17:34:23;0.70;;;0.70;;
4819;SDS011;2424;49.696;6.630;2023-07-20T17:39:45;1.67;;;0.70;;
4819;SDS011;2424;49.696;6.630;2023-07-20T17:45:09;0.60;;;0.60;;
4819;SDS011;2424;49.696;6.630;2023-07-20T17:50:31;0.70;;;0.60;;
4819;SDS011;2424;49.696;6.630;2023-07-20T17:55:53;0.60;;;0.60;;
4819;SDS011;2424;49.696;6.630;2023-07-20T18:01:17;0.60;;;0.60;;
4819;SDS011;2424;49.696;6.630;2023-07-20T18:06:39;0.60;;;0.60;;
4819;SDS011;2424;49.696;6.630;2023-07-20T18:12:01;0.63;;;0.63;;
4819;SDS011;2424;49.696;6.630;2023-07-20T18:17:24;0.60;;;0.60;;
4819;SDS011;2424;49.696;6.630;2023-07-20T18:22:46;0.73;;;0.73;;
4819;SDS011;2424;49.696;6.630;2023-07-20T18:28:09;0.50;;;0.50;;
4819;SDS011;2424;49.696;6.630;2023-07-20T18:33:32;0.63;;;0.60;;
4819;SDS011;2424;49.696;6.630;2023-07-20T18:38:54;1.00;;;0.90;;
4819;SDS011;2424;49.696;6.630;2023-07-20T18:44:16;0.80;;;0.80;;
4819;SDS011;2424;49.696;6.630;2023-07-20T18:49:39;0.67;;;0.67;;
4819;SDS011;2424;49.696;6.630;2023-07-20T18:55:01;0.57;;;0.57;;
4819;SDS011;2424;49.696;6.630;2023-07-20T19:00:23;0.70;;;0.60;;
4819;SDS011;2424;49.696;6.630;2023-07-20T19:05:49;0.73;;;0.70;;
4819;SDS011;2424;49.696;6.630;2023-07-20T19:11:11;0.80;;;0.60;;
4819;SDS011;2424;49.696;6.630;2023-07-20T19:16:33;0.80;;;0.80;;
4819;SDS011;2424;49.696;6.630;2023-07-20T19:21:56;0.77;;;0.77;;
4819;SDS011;2424;49.696;6.630;2023-07-20T19:27:18;0.57;;;0.57;;
4819;SDS011;2424;49.696;6.630;2023-07-20T19:32:40;0.90;;;0.90;;
4819;SDS011;2424;49.696;6.630;2023-07-20T19:38:03;0.70;;;0.70;;
4819;SDS011;2424;49.696;6.630;2023-07-20T19:43:25;1.80;;;0.63;;
4819;SDS011;2424;49.696;6.630;2023-07-20T19:48:47;0.70;;;0.70;;
4819;SDS011;2424;49.696;6.630;2023-07-20T19:54:11;0.80;;;0.80;;
4819;SDS011;2424;49.696;6.630;2023-07-20T19:59:32;0.60;;;0.60;;
4819;SDS011;2424;49.696;6.630;2023-07-20T20:04:56;0.60;;;0.60;;
4819;SDS011;2424;49.696;6.630;2023-07-20T20:10:19;0.60;;;0.60;;
4819;SDS011;2424;49.696;6.630;2023-07-20T20:15:41;0.60;;;0.60;;
4819;SDS011;2424;49.696;6.630;2023-07-20T20:21:03;0.50;;;0.50;;
4819;SDS011;2424;49.696;6.630;2023-07-20T20:26:27;1.10;;;0.70;;
4819;SDS011;2424;49.696;6.630;2023-07-20T20:31:49;3.83;;;0.70;;
4819;SDS011;2424;49.696;6.630;2023-07-20T20:37:11;0.77;;;0.77;;
4819;SDS011;2424;49.696;6.630;2023-07-20T20:42:34;1.00;;;0.90;;
4819;SDS011;2424;49.696;6.630;2023-07-20T20:47:56;0.63;;;0.63;;
4819;SDS011;2424;49.696;6.630;2023-07-20T20:53:19;1.80;;;0.60;;
4819;SDS011;2424;49.696;6.630;2023-07-20T20:58:42;0.60;;;0.60;;
4819;SDS011;2424;49.696;6.630;2023-07-20T21:04:04;1.13;;;0.50;;
4819;SDS011;2424;49.696;6.630;2023-07-20T21:09:26;1.23;;;0.80;;
4819;SDS011;2424;49.696;6.630;2023-07-20T21:14:49;0.47;;;0.47;;
4819;SDS011;2424;49.696;6.630;2023-07-20T21:20:11;0.70;;;0.70;;
4819;SDS011;2424;49.696;6.630;2023-07-20T21:25:33;0.53;;;0.53;;
4819;SDS011;2424;49.696;6.630;2023-07-20T21:31:03;0.73;;;0.63;;
4819;SDS011;2424;49.696;6.630;2023-07-20T21:36:25;0.67;;;0.67;;
4819;SDS011;2424;49.696;6.630;2023-07-20T21:41:47;2.77;;;0.70;;
4819;SDS011;2424;49.696;6.630;2023-07-20T21:47:11;0.70;;;0.70;;
4819;SDS011;2424;49.696;6.630;2023-07-20T21:52:33;0.70;;;0.70;;
4819;SDS011;2424;49.696;6.630;2023-07-20T21:57:58;0.73;;;0.73;;
4819;SDS011;2424;49.696;6.630;2023-07-20T22:03:21;0.60;;;0.60;;
4819;SDS011;2424;49.696;6.630;2023-07-20T22:08:43;0.73;;;0.73;;
4819;SDS011;2424;49.696;6.630;2023-07-20T22:14:05;0.90;;;0.90;;
4819;SDS011;2424;49.696;6.630;2023-07-20T22:19:29;1.90;;;1.10;;
4819;SDS011;2424;49.696;6.630;2023-07-20T22:24:51;0.50;;;0.50;;
4819;SDS011;2424;49.696;6.630;2023-07-20T22:30:13;1.13;;;1.03;;
4819;SDS011;2424;49.696;6.630;2023-07-20T22:35:36;0.70;;;0.70;;
4819;SDS011;2424;49.696;6.630;2023-07-20T22:40:58;0.60;;;0.60;;
4819;SDS011;2424;49.696;6.630;2023-07-20T22:46:20;0.63;;;0.63;;
4819;SDS011;2424;49.696;6.630;2023-07-20T22:51:44;0.70;;;0.70;;
4819;SDS011;2424;49.696;6.630;2023-07-20T22:57:06;0.80;;;0.80;;
4819;SDS011;2424;49.696;6.630;2023-07-20T23:02:28;0.40;;;0.40;;
4819;SDS011;2424;49.696;6.630;2023-07-20T23:07:52;0.57;;;0.57;;
4819;SDS011;2424;49.696;6.630;2023-07-20T23:13:14;0.77;;;0.77;;
4819;SDS011;2424;49.696;6.630;2023-07-20T23:18:36;1.07;;;1.00;;
4819;SDS011;2424;49.696;6.630;2023-07-20T23:24:00;0.60;;;0.60;;
4819;SDS011;2424;49.696;6.630;2023-07-20T23:29:22;0.60;;;0.60;;
4819;SDS011;2424;49.696;6.630;2023-07-20T23:34:44;1.10;;;1.10;;
4819;SDS011;2424;49.696;6.630;2023-07-20T23:40:08;0.80;;;0.80;;
4819;SDS011;2424;49.696;6.630;2023-07-20T23:45:31;0.70;;;0.70;;
4819;SDS011;2424;49.696;6.630;2023-07-20T23:50:54;0.60;;;0.60;;
4819;SDS011;2424;49.696;6.630;2023-07-20T23:56:17;0.70;;;0.70;;
